Airborne Airpark
KILN : now visible

Airfield :











YOU CAN JOIN US ON...

 
LOGIN :

Register | Disclaimer

   EN    FR    IT 

 









Legend :    VFR   Marginal VFR   IFR   Intensive IFR   Very Intensive IFR
Visi :
Ceiling :
>= 8 km
>= 3000ft
5 to 8 km
1000 to 3000 ft
1500m to 5 km
500 to 1000 ft
800 to 1500m
200 to 500 ft
< 800m
< 200 ft
Symbols :   Thunderstorms  Fog  Heavy snow  Heavy precipitations  Wind > 20 kt






- Airport Elevation : 1077 ft


KILN - Airborne Airpark

CURRENT METAR :
  • 251854Z AUTO 06010KT 2SM FZRA BR OVC005 M01/M02 A2991 RMK AO2 SLP155 P0013 I1007 T10061017

EXPIRED METARs :
  • 251822Z AUTO 06009KT 2SM FZRA BR OVC005 M01/M02 A2991 RMK AO2 P0007 I1004 T10111022
  • 251804Z AUTO 06009KT 1 3/4SM FZRA BR OVC005 M01/M02 A2992 RMK AO2 PRESFR P0002 I1002 T10111022
  • 251743Z AUTO 06006KT 2 1/2SM -FZRA BR OVC005 M01/M02 A2995 RMK AO2 UPB27E37FZRAB37 P0001 I1001 T10111022
  • 251722Z AUTO 07009KT 4SM BR OVC005 M01/M03 A2995 RMK AO2 T10111028
  • 251654Z AUTO 09006KT 4SM BR OVC004 M01/M03 A2994 RMK AO2 SLP166 T10111028

TAF KILN
Valid from the 25 at 18:00 until the 26 at 18:00 UTC


251752Z 2518/2618 09007KT 4SM -FZRAPL BR OVC005
TEMPO 2518/2520 2SM FZRA BR
FM252000 08009KT 4SM -FZRA BR OVC005
FM260000 06011KT 5SM -RA BR OVC004
FM260500 09008KT 2SM BR OVC004
FM261300 24010KT 3SM BR OVC005
KZID FIR / North America



MET'MAP, your aeronautical weather chart ! - Copyright ORBIFLY December 2007 - Disclaimer

ORBIFLY MET'MAP TEAM :

Programming & Development : Alexandra Zaïnal
Concept & original design : Baudouin d'Aumeries
Assistance for programming : Marc-Olivier Méhu
Technical & hardware support : Manuel Goepfert

Contact : metmap@orbifly.com




SOURCES & CREDITS :

   NOAA       Earth
Advisory